Time;durP1;ratioP1;P1;durP2;ratioP2;P2;SDS_P1;SDS_P2;PMS_P1;PMS_P2;Temp;Humidity;BMP_temperature;BMP_pressure;BME280_temperature;BME280_humidity;BME280_pressure;Samples;Min_cycle;Max_cycle;Signal;HPM_P1;HPM_P2
2021/11/03 00:01:15;;;;;;;20.63;13.75;;;;;;;5.30;81.69;96085.88;5092919;28;20540;-61
2021/11/03 00:03:44;;;;;;;18.85;12.50;;;;;;;5.33;81.37;96082.38;5092988;28;20016;-62
2021/11/03 00:06:10;;;;;;;20.08;12.00;;;;;;;5.36;80.82;96081.44;5092930;28;20039;-64
2021/11/03 00:08:36;;;;;;;16.92;12.15;;;;;;;5.29;80.64;96085.91;5092847;28;20024;-61
2021/11/03 00:11:04;;;;;;;18.00;12.23;;;;;;;5.24;80.93;96080.81;5092924;28;20390;-62
2021/11/03 00:13:30;;;;;;;35.35;13.27;;;;;;;5.24;81.33;96088.59;5092942;28;20048;-65
2021/11/03 00:15:57;;;;;;;32.15;13.20;;;;;;;5.17;82.56;96098.28;5093013;28;20501;-61
2021/11/03 00:18:23;;;;;;;22.83;13.02;;;;;;;5.21;82.43;96095.63;5092762;28;20027;-63
2021/11/03 00:20:49;;;;;;;25.58;13.40;;;;;;;5.26;82.69;96089.44;5092872;28;20069;-62
2021/11/03 00:23:16;;;;;;;21.98;13.80;;;;;;;5.22;82.83;96103.38;5092969;28;20028;-61
2021/11/03 00:25:45;;;;;;;34.25;14.48;;;;;;;5.28;82.59;96102.34;5092767;28;20016;-61
2021/11/03 00:28:12;;;;;;;15.93;11.13;;;;;;;5.28;82.24;96099.75;5092560;28;20092;-64
2021/11/03 00:30:38;;;;;;;18.08;11.95;;;;;;;5.22;81.72;96105.09;5092680;28;20039;-62
2021/11/03 00:33:04;;;;;;;18.40;11.55;;;;;;;5.26;81.94;96106.72;5092699;28;20039;-59
2021/11/03 00:35:30;;;;;;;17.67;11.73;;;;;;;5.29;81.82;96102.31;5092804;28;20058;-64
2021/11/03 00:37:56;;;;;;;21.77;11.95;;;;;;;5.34;81.48;96107.41;5092724;28;20056;-61
2021/11/03 00:40:21;;;;;;;15.48;10.88;;;;;;;5.33;81.53;96110.91;5092585;28;20025;-62
2021/11/03 00:42:47;;;;;;;25.77;13.98;;;;;;;5.30;81.70;96113.56;5095274;28;20157;-61
2021/11/03 00:45:13;;;;;;;43.30;15.10;;;;;;;5.33;82.35;96113.50;5095102;28;20381;-63
2021/11/03 00:47:39;;;;;;;27.23;13.18;;;;;;;5.37;82.44;96114.25;5096254;28;20058;-62
2021/11/03 00:50:05;;;;;;;19.98;12.13;;;;;;;5.38;82.45;96110.75;5096275;28;20056;-64
2021/11/03 00:52:31;;;;;;;22.20;10.90;;;;;;;5.41;82.39;96116.75;5096142;28;20016;-62
2021/11/03 00:54:57;;;;;;;26.80;10.70;;;;;;;5.48;82.92;96124.38;5096157;28;20012;-62
2021/11/03 00:57:23;;;;;;;19.67;11.98;;;;;;;5.52;83.08;96126.00;5096185;28;20172;-63
2021/11/03 00:59:48;;;;;;;31.48;13.00;;;;;;;5.57;82.77;96131.94;5095966;28;20083;-63
2021/11/03 01:02:15;;;;;;;36.17;13.98;;;;;;;5.57;82.92;96137.13;5096049;28;20052;-63
2021/11/03 01:04:40;;;;;;;25.00;12.98;;;;;;;5.63;83.11;96126.56;5096015;28;20420;-61
2021/11/03 01:07:06;;;;;;;20.55;11.95;;;;;;;5.65;83.40;96130.00;5095848;28;20024;-62
2021/11/03 01:09:32;;;;;;;17.42;10.93;;;;;;;5.70;83.40;96132.47;5095824;28;20024;-63
2021/11/03 01:11:58;;;;;;;22.35;10.90;;;;;;;5.74;83.54;96138.44;5095839;28;20085;-63
2021/11/03 01:14:23;;;;;;;15.23;9.68;;;;;;;5.78;83.28;96129.69;5095790;28;20020;-65
2021/11/03 01:16:49;;;;;;;46.03;22.27;;;;;;;5.75;83.82;96147.94;5095791;28;20077;-63
2021/11/03 01:19:15;;;;;;;30.85;17.92;;;;;;;5.80;84.45;96144.34;5095688;28;20470;-62
2021/11/03 01:21:41;;;;;;;38.10;18.20;;;;;;;5.85;84.58;96141.63;5095686;28;20031;-60
2021/11/03 01:24:08;;;;;;;21.10;13.10;;;;;;;5.91;84.26;96146.66;5094369;28;20470;-63
2021/11/03 01:26:34;;;;;;;24.63;15.07;;;;;;;5.88;84.01;96140.69;5095532;28;20397;-60
2021/11/03 01:28:59;;;;;;;26.77;15.77;;;;;;;5.88;84.21;96148.47;5095471;28;20066;-65
2021/11/03 01:31:25;;;;;;;23.92;13.93;;;;;;;5.89;84.35;96145.84;5095414;28;20351;-63
2021/11/03 01:33:52;;;;;;;17.08;11.77;;;;;;;5.94;83.80;96151.75;5095476;28;20028;-61
2021/11/03 01:36:18;;;;;;;16.65;10.68;;;;;;;5.92;83.81;96147.50;5095445;28;20362;-65
2021/11/03 01:38:43;;;;;;;26.83;11.90;;;;;;;5.88;83.28;96156.25;5095374;28;20046;-64
2021/11/03 01:41:09;;;;;;;21.00;12.68;;;;;;;5.88;82.98;96161.47;5095214;28;20370;-61
2021/11/03 01:43:39;;;;;;;19.58;11.70;;;;;;;5.82;83.28;96159.88;5095205;28;20024;-63
2021/11/03 01:46:19;;;;;;;10.55;7.50;;;;;;;5.79;83.43;96163.41;5095180;28;20024;-64
2021/11/03 01:48:44;;;;;;;12.27;7.80;;;;;;;5.75;82.96;96159.16;5095153;28;20032;-62
2021/11/03 01:51:16;;;;;;;11.13;7.35;;;;;;;5.73;82.38;96160.97;5095065;28;20509;-62
2021/11/03 01:53:42;;;;;;;9.32;6.82;;;;;;;5.67;82.29;96164.56;5093821;28;20439;-62
2021/11/03 01:56:12;;;;;;;9.77;7.80;;;;;;;5.68;81.98;96163.66;5094978;28;20032;-60
2021/11/03 01:58:45;;;;;;;10.68;5.80;;;;;;;5.62;82.11;96158.63;5094971;28;20039;-62
2021/11/03 02:01:11;;;;;;;9.27;7.40;;;;;;;5.64;81.88;96163.78;5094664;28;20052;-65
2021/11/03 02:03:40;;;;;;;8.00;6.10;;;;;;;5.65;81.46;96176.72;5094838;28;20103;-60
2021/11/03 02:06:14;;;;;;;16.95;6.95;;;;;;;5.65;81.43;96174.13;5094679;28;20069;-65
2021/11/03 02:08:42;;;;;;;13.38;7.65;;;;;;;5.60;81.44;96170.78;5094759;28;20112;-61
2021/11/03 02:11:09;;;;;;;11.20;6.85;;;;;;;5.62;80.92;96175.91;5094793;28;20013;-64
2021/11/03 02:13:36;;;;;;;12.75;7.53;;;;;;;5.46;81.06;96173.72;5094719;28;20355;-60
2021/11/03 02:16:02;;;;;;;11.75;8.07;;;;;;;5.43;80.83;96182.44;5094525;28;20023;-65
2021/11/03 02:18:28;;;;;;;31.70;20.13;;;;;;;5.28;81.55;96178.44;5094675;28;20031;-63
2021/11/03 02:20:54;;;;;;;50.95;30.73;;;;;;;5.27;81.71;96187.09;5094487;28;20020;-63
2021/11/03 02:23:44;;;;;;;30.27;20.33;;;;;;;5.25;81.70;96188.00;5094480;28;20041;-63
2021/11/03 02:26:25;;;;;;;19.75;14.73;;;;;;;5.23;81.65;96192.38;5094507;28;20027;-63
2021/11/03 02:28:51;;;;;;;12.65;8.35;;;;;;;5.16;81.14;96187.34;5094232;28;20040;-61
2021/11/03 02:31:38;;;;;;;9.57;7.75;;;;;;;5.09;81.43;96193.53;5094354;28;20145;-62
2021/11/03 02:34:16;;;;;;;11.98;7.90;;;;;;;5.06;82.83;96189.28;5094401;28;20027;-63
2021/11/03 02:37:01;;;;;;;8.85;7.32;;;;;;;5.01;82.25;96193.72;5094351;28;20024;-60
2021/11/03 02:39:41;;;;;;;15.93;7.65;;;;;;;4.90;82.24;96185.28;5094170;28;20123;-63
2021/11/03 02:42:08;;;;;;;8.75;6.25;;;;;;;4.88;82.55;96197.44;5094341;28;20126;-63
2021/11/03 02:44:36;;;;;;;15.77;6.78;;;;;;;4.91;82.08;96187.03;5094079;28;20028;-64
2021/11/03 02:47:04;;;;;;;9.23;6.47;;;;;;;4.85;81.97;96195.75;5094059;28;20024;-63
2021/11/03 02:49:30;;;;;;;8.68;6.85;;;;;;;4.79;82.08;96203.69;5093985;28;20023;-63
2021/11/03 02:51:57;;;;;;;81.95;64.13;;;;;;;4.77;82.05;96205.44;5093888;28;20024;-62
2021/11/03 02:54:23;;;;;;;99.85;74.07;;;;;;;4.75;82.11;96195.09;5093803;28;20615;-60
2021/11/03 02:56:57;;;;;;;17.63;14.00;;;;;;;4.76;82.00;96199.38;5093779;28;20467;-63
2021/11/03 02:59:26;;;;;;;15.75;11.85;;;;;;;4.76;82.50;96214.09;5093575;28;20048;-62
2021/11/03 03:01:57;;;;;;;12.32;7.82;;;;;;;4.79;82.24;96222.66;5093799;28;20382;-65
2021/11/03 03:04:37;;;;;;;12.35;7.22;;;;;;;4.71;82.17;96221.97;5093409;28;20031;-63
2021/11/03 03:07:05;;;;;;;6.07;5.35;;;;;;;4.71;82.50;96216.78;5093776;28;20035;-63
2021/11/03 03:09:31;;;;;;;12.38;6.28;;;;;;;4.72;82.41;96226.25;5093573;28;20024;-64
2021/11/03 03:12:01;;;;;;;11.45;6.88;;;;;;;4.75;82.22;96230.53;5093558;28;20021;-64
2021/11/03 03:14:31;;;;;;;9.45;6.97;;;;;;;4.76;82.27;96237.44;5093630;28;20051;-66
2021/11/03 03:16:57;;;;;;;9.82;6.50;;;;;;;4.74;82.20;96232.28;5093431;28;20144;-61
2021/11/03 03:19:23;;;;;;;8.68;6.95;;;;;;;4.67;82.75;96230.69;5093430;28;20027;-64
2021/11/03 03:21:49;;;;;;;9.68;7.50;;;;;;;4.72;83.15;96233.19;5093432;28;20439;-64
2021/11/03 03:24:16;;;;;;;11.43;7.40;;;;;;;4.68;83.19;96233.25;5093438;28;20054;-64
2021/11/03 03:26:43;;;;;;;15.30;7.68;;;;;;;4.70;83.71;96240.13;5093403;28;20024;-63
2021/11/03 03:29:09;;;;;;;9.20;6.90;;;;;;;4.76;83.89;96242.63;5093196;28;20474;-61
2021/11/03 03:31:35;;;;;;;11.77;7.03;;;;;;;4.83;84.08;96243.34;5093442;28;20028;-59
2021/11/03 03:34:06;;;;;;;10.18;6.20;;;;;;;4.88;84.15;96246.69;5093386;28;20081;-62
2021/11/03 03:36:32;;;;;;;;;;;;;;;4.93;84.52;96250.91;5093890;28;20028;-63
2021/11/03 03:38:57;;;;;;;8.52;6.32;;;;;;;4.91;84.62;96250.06;5093215;28;20393;-61
2021/11/03 03:41:26;;;;;;;10.18;6.22;;;;;;;5.00;84.96;96264.59;5093192;28;20382;-62
2021/11/03 03:43:52;;;;;;;12.25;7.43;;;;;;;5.10;85.56;96273.03;5093197;28;20058;-63
2021/11/03 03:46:19;;;;;;;10.40;6.93;;;;;;;5.20;85.29;96265.91;5091978;28;20048;-63
2021/11/03 03:48:45;;;;;;;12.43;7.95;;;;;;;5.29;85.62;96252.75;5093153;28;20432;-62
2021/11/03 03:51:12;;;;;;;10.82;7.55;;;;;;;5.31;85.25;96263.97;5093137;28;20066;-62
2021/11/03 03:53:38;;;;;;;11.05;7.00;;;;;;;5.39;85.56;96263.78;5093103;28;20070;-62
2021/11/03 03:56:04;;;;;;;11.30;6.53;;;;;;;5.47;85.59;96265.34;5091920;28;20024;-61
2021/11/03 03:58:30;;;;;;;8.18;6.20;;;;;;;5.52;85.38;96261.78;5093016;28;20021;-65
2021/11/03 04:00:56;;;;;;;9.05;6.55;;;;;;;5.54;85.06;96261.75;5092734;28;20055;-65
2021/11/03 04:03:21;;;;;;;8.98;6.57;;;;;;;5.56;84.96;96268.59;5093021;28;20074;-64
2021/11/03 04:05:47;;;;;;;13.27;7.25;;;;;;;5.63;85.22;96268.47;5091707;28;20020;-64
2021/11/03 04:08:14;;;;;;;10.75;5.85;;;;;;;5.69;84.97;96273.53;5093020;28;20074;-61
2021/11/03 04:10:41;;;;;;;11.45;6.18;;;;;;;5.71;84.71;96268.28;5093029;28;20061;-63
2021/11/03 04:13:07;;;;;;;8.32;5.93;;;;;;;5.74;84.39;96273.41;5092966;28;20030;-62
2021/11/03 04:15:33;;;;;;;8.77;5.18;;;;;;;5.79;84.63;96272.44;5092857;28;20119;-64
2021/11/03 04:18:00;;;;;;;7.45;6.15;;;;;;;5.82;84.06;96272.34;5095907;28;20016;-61
2021/11/03 04:20:26;;;;;;;11.35;6.78;;;;;;;5.82;84.08;96276.69;5096843;28;20545;-62
2021/11/03 04:22:51;;;;;;;8.93;6.93;;;;;;;5.78;84.26;96281.09;5096795;28;20032;-62
2021/11/03 04:25:18;;;;;;;9.88;7.13;;;;;;;5.83;84.27;96288.78;5096743;28;20024;-62
2021/11/03 04:27:43;;;;;;;11.10;6.13;;;;;;;5.86;84.38;96283.50;5096584;28;20032;-62
2021/11/03 04:30:11;;;;;;;11.13;7.15;;;;;;;5.92;84.21;96291.16;5096705;28;20043;-62
2021/11/03 04:32:37;;;;;;;13.70;6.38;;;;;;;5.85;84.62;96296.53;5096568;28;20420;-63
2021/11/03 04:35:05;;;;;;;15.18;8.57;;;;;;;5.77;85.06;96288.91;5096664;28;20027;-63
2021/11/03 04:37:31;;;;;;;15.10;7.05;;;;;;;5.78;85.42;96296.66;5096548;28;20046;-62
2021/11/03 04:39:56;;;;;;;12.43;7.07;;;;;;;5.74;85.63;96304.56;5096493;28;20016;-64
2021/11/03 04:42:22;;;;;;;11.60;6.97;;;;;;;5.76;85.87;96297.59;5096407;28;20031;-63
2021/11/03 04:44:47;;;;;;;12.15;6.68;;;;;;;5.77;85.17;96294.97;5096332;28;20031;-60
2021/11/03 04:47:13;;;;;;;10.68;6.50;;;;;;;5.76;85.86;96306.25;5096463;28;20039;-65
2021/11/03 04:49:39;;;;;;;9.98;6.53;;;;;;;5.85;85.88;96310.38;5096216;28;20028;-64
2021/11/03 04:52:05;;;;;;;25.35;17.70;;;;;;;5.84;85.81;96318.19;5096265;28;20039;-62
2021/11/03 04:54:31;;;;;;;33.58;22.52;;;;;;;5.90;86.83;96308.50;5096190;28;20478;-60
2021/11/03 04:56:57;;;;;;;22.60;16.25;;;;;;;5.92;86.29;96313.66;5096102;28;20016;-62
2021/11/03 04:59:23;;;;;;;15.95;12.07;;;;;;;5.99;86.40;96317.81;5095879;28;20068;-64
2021/11/03 05:01:49;;;;;;;11.63;9.60;;;;;;;6.08;86.16;96314.19;5096040;28;20422;-63
2021/11/03 05:04:15;;;;;;;10.27;8.25;;;;;;;6.04;86.57;96321.22;5096124;28;20416;-62
2021/11/03 05:06:42;;;;;;;15.98;9.77;;;;;;;6.09;86.63;96328.03;5095982;28;20028;-65
2021/11/03 05:09:09;;;;;;;11.45;7.40;;;;;;;6.14;86.33;96332.22;5095774;28;20550;-65
2021/11/03 05:11:35;;;;;;;10.48;7.38;;;;;;;6.16;86.24;96325.25;5095915;28;20021;-61
2021/11/03 05:14:01;;;;;;;7.35;6.40;;;;;;;6.23;85.94;96344.13;5095821;28;20016;-64
2021/11/03 05:16:28;;;;;;;11.73;6.22;;;;;;;6.27;86.28;96348.41;5095776;28;20039;-61
2021/11/03 05:18:55;;;;;;;8.32;6.25;;;;;;;6.28;85.87;96347.50;5095695;28;20028;-61
2021/11/03 05:21:21;;;;;;;19.65;8.35;;;;;;;6.36;86.16;96356.84;5095659;28;20016;-62
2021/11/03 05:23:47;;;;;;;12.57;7.60;;;;;;;6.41;86.19;96345.44;5095740;28;20027;-62
2021/11/03 05:26:17;;;;;;;15.48;7.85;;;;;;;6.50;86.09;96369.53;5095773;28;20031;-62
2021/11/03 05:28:46;;;;;;;16.33;6.20;;;;;;;6.59;85.94;96369.25;5095343;28;20062;-64
2021/11/03 05:31:12;;;;;;;9.30;6.55;;;;;;;6.66;85.22;96365.66;5095517;28;20051;-62
2021/11/03 05:33:38;;;;;;;9.68;6.47;;;;;;;6.74;85.23;96373.22;5095417;28;20043;-62
2021/11/03 05:36:04;;;;;;;13.90;6.28;;;;;;;6.81;85.13;96369.56;5095522;28;20024;-61
2021/11/03 05:38:29;;;;;;;14.52;7.30;;;;;;;6.89;84.62;96369.38;5095361;28;20035;-62
2021/11/03 05:40:55;;;;;;;9.88;7.30;;;;;;;7.02;84.24;96379.47;5095262;28;20032;-63
2021/11/03 05:43:21;;;;;;;12.80;5.78;;;;;;;7.12;83.94;96386.16;5095210;28;20016;-61
2021/11/03 05:45:47;;;;;;;6.43;5.30;;;;;;;7.36;83.61;96391.56;5095435;28;20031;-65
2021/11/03 05:48:13;;;;;;;8.82;6.75;;;;;;;7.57;82.70;96397.06;5095149;28;20028;-63
2021/11/03 05:50:39;;;;;;;7.80;5.15;;;;;;;7.95;81.60;96407.28;5095285;28;20462;-64
2021/11/03 05:53:05;;;;;;;5.60;4.63;;;;;;;8.31;79.68;96404.44;5095049;28;20069;-62
2021/11/03 05:55:30;;;;;;;10.35;4.82;;;;;;;8.46;78.83;96400.50;5095048;28;20524;-62
2021/11/03 05:57:57;;;;;;;12.15;5.93;;;;;;;8.60;78.96;96412.28;5094941;28;20023;-62
2021/11/03 06:00:27;;;;;;;8.57;7.25;;;;;;;8.95;78.30;96417.25;5094754;28;20131;-62
2021/11/03 06:02:53;;;;;;;8.60;3.50;;;;;;;9.35;75.29;96423.72;5094987;28;20466;-63
2021/11/03 06:05:20;;;;;;;3.10;2.80;;;;;;;9.56;74.93;96425.63;5094909;28;20028;-60
2021/11/03 06:08:04;;;;;;;5.03;3.60;;;;;;;9.77;74.40;96426.59;5094583;28;20532;-65
2021/11/03 06:10:38;;;;;;;3.80;3.40;;;;;;;9.95;73.86;96429.44;5094823;28;20020;-60
2021/11/03 06:13:05;;;;;;;3.75;3.38;;;;;;;10.39;72.41;96430.41;5094732;28;20085;-65
2021/11/03 06:15:32;;;;;;;5.65;4.63;;;;;;;11.10;71.04;96424.97;5094688;28;20078;-64
2021/11/03 06:18:00;;;;;;;4.13;3.55;;;;;;;12.96;67.45;96429.78;5094599;28;20066;-61
2021/11/03 06:20:27;;;;;;;6.97;2.75;;;;;;;14.58;61.67;96443.38;5094474;28;20470;-62
2021/11/03 06:22:53;;;;;;;4.72;2.72;;;;;;;15.87;57.20;96448.28;5094560;28;20035;-64
2021/11/03 06:25:19;;;;;;;7.28;2.58;;;;;;;16.73;53.89;96457.06;5094573;28;20054;-62
2021/11/03 06:27:46;;;;;;;96.45;52.88;;;;;;;17.28;51.18;96461.53;5094414;28;20428;-64
2021/11/03 06:30:15;;;;;;;31.55;20.02;;;;;;;17.88;50.37;96463.72;5094344;28;20020;-63
2021/11/03 06:32:41;;;;;;;8.93;6.82;;;;;;;18.60;48.75;96472.84;5094314;28;20028;-63
2021/11/03 06:35:08;;;;;;;4.45;4.05;;;;;;;18.43;47.67;96482.84;5094158;28;20480;-63
2021/11/03 06:37:34;;;;;;;5.05;4.15;;;;;;;18.19;48.94;96474.84;5094269;28;20063;-65
2021/11/03 06:40:00;;;;;;;4.70;3.90;;;;;;;17.84;49.60;96478.94;5093524;28;20031;-66
2021/11/03 06:42:25;;;;;;;5.95;3.60;;;;;;;17.92;49.56;96481.91;5092873;28;20035;-64
2021/11/03 06:44:51;;;;;;;4.30;3.90;;;;;;;19.30;47.19;96489.03;5094126;28;20036;-66
2021/11/03 06:47:19;;;;;;;6.03;4.60;;;;;;;21.05;43.78;96490.75;5093988;28;20032;-64
2021/11/03 06:49:47;;;;;;;4.63;4.22;;;;;;;22.71;40.43;96493.81;5093969;28;20032;-64
2021/11/03 06:52:14;;;;;;;7.40;3.20;;;;;;;24.16;38.24;96502.16;5093975;28;20072;-64
2021/11/03 06:54:40;;;;;;;6.95;3.95;;;;;;;25.37;36.11;96502.25;5093912;28;20036;-63
2021/11/03 06:57:06;;;;;;;3.47;3.03;;;;;;;25.91;34.66;96503.25;5093863;28;20572;-59
2021/11/03 06:59:32;;;;;;;3.50;3.20;;;;;;;26.02;34.34;96502.13;5093516;28;20040;-60
2021/11/03 07:01:58;;;;;;;3.80;3.50;;;;;;;25.26;35.83;96497.97;5093759;28;20109;-66
2021/11/03 07:04:24;;;;;;;7.90;6.57;;;;;;;25.38;35.92;96497.75;5092490;28;20071;-63
2021/11/03 07:06:50;;;;;;;15.45;12.43;;;;;;;26.20;34.61;96492.22;5093700;28;20032;-63
2021/11/03 07:09:16;;;;;;;4.25;3.92;;;;;;;27.44;33.29;96482.09;5093578;28;20034;-63
2021/11/03 07:11:42;;;;;;;4.15;3.80;;;;;;;28.35;31.28;96495.50;5093550;28;20102;-63
2021/11/03 07:14:11;;;;;;;6.03;4.88;;;;;;;28.85;29.68;96498.03;5093643;28;20103;-63
2021/11/03 07:16:36;;;;;;;4.20;3.80;;;;;;;29.15;29.14;96516.22;5093558;28;20039;-64
2021/11/03 07:19:03;;;;;;;5.80;3.95;;;;;;;29.71;28.11;96508.97;5092248;28;20024;-60
2021/11/03 07:21:29;;;;;;;4.88;3.80;;;;;;;30.42;28.23;96517.75;5093439;28;20024;-59
2021/11/03 07:23:55;;;;;;;4.28;3.75;;;;;;;30.70;27.06;96509.84;5093410;28;20028;-61
2021/11/03 07:26:21;;;;;;;3.88;3.58;;;;;;;30.76;26.67;96517.25;5093437;28;20031;-63
2021/11/03 07:28:48;;;;;;;3.58;3.28;;;;;;;30.37;27.75;96511.06;5093372;28;20048;-63
2021/11/03 07:31:14;;;;;;;4.32;3.92;;;;;;;30.72;26.98;96510.53;5093402;28;20101;-63
2021/11/03 07:33:42;;;;;;;3.83;3.53;;;;;;;30.95;27.17;96497.94;5093268;28;20480;-64
2021/11/03 07:36:13;;;;;;;4.18;3.78;;;;;;;31.15;27.76;96503.56;5093181;28;20024;-62
2021/11/03 07:38:39;;;;;;;4.35;3.95;;;;;;;31.34;27.56;96504.00;5093297;28;20031;-60
2021/11/03 07:41:05;;;;;;;4.05;3.65;;;;;;;30.97;28.36;96509.41;5093253;28;20021;-62
2021/11/03 07:43:32;;;;;;;4.43;3.70;;;;;;;31.07;26.93;96504.53;5093299;28;20025;-62
2021/11/03 07:45:58;;;;;;;5.85;4.03;;;;;;;31.28;27.47;96503.72;5093307;28;20062;-62
2021/11/03 07:48:26;;;;;;;6.68;5.93;;;;;;;30.71;28.02;96503.47;5093045;28;20474;-65
2021/11/03 07:51:02;;;;;;;12.27;8.88;;;;;;;30.62;28.67;96502.72;5094422;28;20044;-64
2021/11/03 07:53:29;;;;;;;3.80;3.50;;;;;;;30.72;28.71;96497.03;5097423;28;20034;-65
2021/11/03 07:55:59;;;;;;;3.70;3.40;;;;;;;30.60;28.27;96512.00;5097275;28;20038;-61
2021/11/03 07:58:28;;;;;;;6.38;3.92;;;;;;;29.79;28.72;96508.09;5097338;28;20040;-66
2021/11/03 08:00:56;;;;;;;4.07;3.78;;;;;;;28.89;30.12;96509.25;5096939;28;20040;-67
2021/11/03 08:03:23;;;;;;;4.10;3.50;;;;;;;27.63;32.85;96518.53;5097370;28;20024;-64
2021/11/03 08:05:50;;;;;;;3.63;3.33;;;;;;;26.11;34.82;96511.91;5097159;28;20039;-64
2021/11/03 08:08:19;;;;;;;3.78;3.47;;;;;;;24.95;37.15;96511.72;5096975;28;20062;-65
2021/11/03 08:10:46;;;;;;;4.05;3.65;;;;;;;23.93;38.86;96512.31;5097030;28;20024;-64
2021/11/03 08:13:17;;;;;;;3.92;3.60;;;;;;;23.32;41.58;96499.09;5096897;28;20024;-65
2021/11/03 08:15:49;;;;;;;4.03;3.63;;;;;;;21.96;45.81;96497.50;5096937;28;20034;-61
2021/11/03 08:18:17;;;;;;;4.53;3.63;;;;;;;21.28;46.17;96502.16;5096927;28;20097;-65
2021/11/03 08:20:44;;;;;;;3.67;3.38;;;;;;;21.10;45.57;96515.16;5096719;28;20059;-63
2021/11/03 08:23:11;;;;;;;4.95;3.17;;;;;;;20.84;45.62;96516.25;5095544;28;20391;-61
2021/11/03 08:25:37;;;;;;;5.25;4.00;;;;;;;20.63;45.92;96512.69;5096662;28;20027;-66
2021/11/03 08:28:03;;;;;;;3.67;3.38;;;;;;;20.16;47.95;96514.47;5096695;28;20024;-61
2021/11/03 08:30:29;;;;;;;5.47;3.65;;;;;;;20.06;48.37;96516.16;5096722;28;20020;-62
2021/11/03 08:33:01;;;;;;;5.03;3.47;;;;;;;20.07;48.02;96517.84;5096689;28;20024;-59
2021/11/03 08:35:28;;;;;;;4.00;3.60;;;;;;;19.81;50.46;96521.50;5096585;28;20077;-61
2021/11/03 08:38:03;;;;;;;4.05;3.70;;;;;;;19.60;51.34;96521.34;5096495;28;20050;-63
2021/11/03 08:40:32;;;;;;;3.85;3.47;;;;;;;19.66;51.78;96525.34;5096490;28;20036;-62
2021/11/03 08:42:58;;;;;;;4.53;3.97;;;;;;;19.75;50.88;96534.41;5096550;28;20078;-63
2021/11/03 08:45:24;;;;;;;3.55;3.22;;;;;;;19.63;52.16;96544.13;5096473;28;20461;-63
2021/11/03 08:47:50;;;;;;;4.28;3.88;;;;;;;19.54;53.66;96545.66;5096269;28;20040;-63
2021/11/03 08:50:23;;;;;;;5.28;3.78;;;;;;;19.57;51.75;96545.44;5096264;28;20032;-62
2021/11/03 08:52:49;;;;;;;3.67;3.33;;;;;;;19.54;50.14;96543.00;5096226;28;20024;-64
2021/11/03 08:55:15;;;;;;;4.10;3.45;;;;;;;19.59;49.89;96554.13;5095041;28;20499;-64
2021/11/03 08:57:41;;;;;;;5.20;3.00;;;;;;;19.59;49.57;96554.13;5096181;28;20042;-65
2021/11/03 09:00:11;;;;;;;3.10;2.80;;;;;;;19.66;49.98;96552.69;5094665;28;20051;-61
2021/11/03 09:02:37;;;;;;;4.28;3.38;;;;;;;19.52;51.06;96551.09;5095448;28;20425;-64
2021/11/03 09:05:03;;;;;;;3.22;2.83;;;;;;;19.56;50.66;96549.03;5096035;28;20054;-61
2021/11/03 09:07:33;;;;;;;4.70;2.92;;;;;;;19.67;50.10;96554.41;5096186;28;20019;-66
2021/11/03 09:10:02;;;;;;;3.20;2.90;;;;;;;19.70;51.42;96548.88;5096012;28;20038;-64
2021/11/03 09:12:28;;;;;;;3.50;2.85;;;;;;;19.83;50.34;96548.78;5095911;28;20024;-63
2021/11/03 09:14:54;;;;;;;3.53;3.20;;;;;;;19.61;53.04;96552.19;5095970;28;20032;-65
2021/11/03 09:17:21;;;;;;;8.77;3.40;;;;;;;19.68;54.18;96564.03;5095758;28;20028;-61
2021/11/03 09:19:47;;;;;;;3.78;3.25;;;;;;;19.55;53.29;96561.47;5095802;28;20062;-62
2021/11/03 09:22:13;;;;;;;3.38;3.08;;;;;;;19.49;52.60;96553.97;5095741;28;20465;-61
2021/11/03 09:24:40;;;;;;;3.67;3.10;;;;;;;19.55;52.55;96550.88;5095693;28;20153;-66
2021/11/03 09:27:14;;;;;;;4.82;3.22;;;;;;;19.57;51.52;96548.09;5095754;28;20363;-65
2021/11/03 09:29:45;;;;;;;3.97;3.13;;;;;;;19.68;51.26;96541.97;5095458;28;20032;-66
2021/11/03 09:32:14;;;;;;;2.83;2.53;;;;;;;19.75;48.94;96537.88;5094361;28;20036;-63
2021/11/03 09:34:47;;;;;;;3.08;2.78;;;;;;;19.64;48.70;96529.91;5095582;28;20032;-64
2021/11/03 09:37:16;;;;;;;2.45;2.25;;;;;;;19.58;47.36;96533.88;5095374;28;20070;-62
2021/11/03 09:39:44;;;;;;;3.15;2.85;;;;;;;19.57;49.88;96533.00;5095307;28;20035;-61
2021/11/03 09:42:13;;;;;;;3.58;2.90;;;;;;;19.64;50.81;96528.09;5095386;28;20493;-66
2021/11/03 09:44:39;;;;;;;6.45;2.78;;;;;;;19.86;50.47;96530.94;5095272;28;20019;-64
2021/11/03 09:47:20;;;;;;;5.25;3.20;;;;;;;19.94;52.09;96516.13;5095230;28;20022;-66
2021/11/03 09:50:12;;;;;;;5.97;3.28;;;;;;;19.94;50.30;96516.13;5095109;28;20038;-65
2021/11/03 09:52:45;;;;;;;3.42;3.13;;;;;;;19.98;49.10;96502.63;5095110;28;20034;-65
2021/11/03 09:55:13;;;;;;;6.60;3.30;;;;;;;19.94;49.62;96510.81;5095179;28;20028;-62
2021/11/03 09:58:31;;;;;;;4.70;3.33;;;;;;;19.98;49.40;96506.09;5094961;28;20028;-60
2021/11/03 10:01:09;;;;;;;5.80;3.00;;;;;;;19.91;50.19;96504.88;5072204;28;20125;-62
2021/11/03 10:04:16;;;;;;;6.00;3.53;;;;;;;19.94;49.50;96508.16;5072588;28;20040;-63
2021/11/03 10:07:01;;;;;;;3.72;3.42;;;;;;;19.83;50.95;96506.31;5074273;28;20044;-63
2021/11/03 10:09:27;;;;;;;5.95;3.63;;;;;;;19.88;49.53;96508.63;5094621;28;20525;-63
2021/11/03 10:11:53;;;;;;;3.10;2.67;;;;;;;19.93;47.90;96495.00;5094677;28;20119;-61
2021/11/03 10:14:20;;;;;;;3.10;2.60;;;;;;;20.00;47.20;96498.00;5093583;28;20157;-65
2021/11/03 10:16:55;;;;;;;7.22;4.20;;;;;;;19.92;53.18;96494.16;5094620;28;20016;-59
2021/11/03 10:19:27;;;;;;;7.45;6.70;;;;;;;19.90;55.48;96501.38;5094660;28;20076;-62
2021/11/03 10:22:00;;;;;;;10.57;5.85;;;;;;;19.77;54.51;96504.13;5094603;28;20031;-61
2021/11/03 10:24:40;;;;;;;11.98;5.95;;;;;;;19.48;55.18;96509.84;5094370;28;20028;-59
2021/11/03 10:27:08;;;;;;;9.32;5.88;;;;;;;19.42;55.19;96513.78;5094492;28;20028;-64
2021/11/03 10:29:50;;;;;;;7.45;5.70;;;;;;;19.44;54.97;96506.56;5093058;28;20024;-64
2021/11/03 10:32:29;;;;;;;9.73;7.60;;;;;;;19.42;56.30;96508.47;5094440;28;20218;-65
2021/11/03 10:35:04;;;;;;;9.60;7.20;;;;;;;19.45;55.05;96505.59;5094394;28;20416;-65
2021/11/03 10:37:39;;;;;;;10.43;8.10;;;;;;;19.45;55.04;96510.06;5094288;28;20034;-66
2021/11/03 10:40:15;;;;;;;9.52;8.52;;;;;;;19.22;54.05;96515.28;5094146;28;20020;-60
2021/11/03 10:42:41;;;;;;;10.95;9.10;;;;;;;19.03;55.74;96508.63;5094124;28;20385;-61
2021/11/03 10:45:16;;;;;;;14.18;9.05;;;;;;;18.95;55.80;96511.00;5094152;28;20028;-61
2021/11/03 10:48:06;;;;;;;10.13;8.65;;;;;;;18.89;55.58;96516.72;5094112;28;20382;-61
2021/11/03 10:50:36;;;;;;;21.83;14.90;;;;;;;18.85;55.66;96510.84;5093952;28;20030;-60
2021/11/03 10:53:16;;;;;;;16.02;10.88;;;;;;;18.96;53.87;96507.38;5093560;28;20032;-60
2021/11/03 10:55:49;;;;;;;13.45;8.25;;;;;;;18.94;55.25;96499.53;5094061;28;20533;-63
2021/11/03 10:58:24;;;;;;;8.82;6.75;;;;;;;18.93;52.21;96495.22;5093987;28;20028;-64
2021/11/03 11:01:05;;;;;;;9.88;7.00;;;;;;;19.00;53.42;96486.81;5093700;28;20111;-64
2021/11/03 11:03:42;;;;;;;8.32;6.25;;;;;;;19.09;53.43;96482.66;5093828;28;20136;-61
2021/11/03 11:06:19;;;;;;;6.30;5.07;;;;;;;19.15;48.95;96483.03;5093768;28;20424;-66
2021/11/03 11:08:59;;;;;;;8.30;7.07;;;;;;;18.97;52.69;96487.03;5093710;28;20032;-63
2021/11/03 11:11:27;;;;;;;11.23;8.20;;;;;;;19.02;54.49;96484.91;5093718;28;20024;-63
2021/11/03 11:14:17;;;;;;;9.35;7.40;;;;;;;19.10;53.39;96473.75;5093693;28;20089;-66
2021/11/03 11:16:56;;;;;;;6.77;5.57;;;;;;;19.12;48.73;96475.34;5093625;28;20034;-59
2021/11/03 11:19:55;;;;;;;6.10;4.35;;;;;;;19.21;47.78;96467.66;5093578;28;20539;-63
2021/11/03 11:22:39;;;;;;;4.45;3.20;;;;;;;19.29;44.98;96468.78;5093672;28;20386;-66
2021/11/03 11:25:08;;;;;;;3.90;2.42;;;;;;;19.26;41.31;96470.84;5093252;28;20024;-63
2021/11/03 11:27:42;;;;;;;3.25;2.67;;;;;;;19.26;43.40;96470.84;5093523;28;20038;-60
2021/11/03 11:30:18;;;;;;;6.50;4.45;;;;;;;19.21;46.01;96465.88;5093156;28;20028;-63
2021/11/03 11:33:02;;;;;;;3.70;2.92;;;;;;;19.10;42.80;96460.50;5093374;28;20035;-65
2021/11/03 11:35:46;;;;;;;9.20;5.47;;;;;;;19.12;48.19;96466.53;5093288;28;20024;-63
2021/11/03 11:38:33;;;;;;;9.25;7.63;;;;;;;19.11;50.51;96462.22;5093337;28;20539;-65
2021/11/03 11:41:05;;;;;;;11.60;8.52;;;;;;;19.06;52.16;96467.81;5093236;28;20040;-64